createdAt,value
2023-04-12T00:03:07.643Z,9.09
2023-04-12T00:08:11.937Z,9.04
2023-04-12T00:13:14.487Z,9.02
2023-04-12T00:18:17.250Z,8.93
2023-04-12T00:23:20.735Z,8.86
2023-04-12T00:28:23.378Z,8.73
2023-04-12T00:33:26.014Z,8.61
2023-04-12T00:38:28.945Z,8.50
2023-04-12T00:43:31.567Z,8.45
2023-04-12T00:48:34.409Z,8.44
2023-04-12T00:53:39.867Z,8.39
2023-04-12T00:58:42.512Z,8.33
2023-04-12T01:03:46.552Z,8.22
2023-04-12T01:09:38.932Z,8.06
2023-04-12T01:14:58.315Z,8.01
2023-04-12T01:20:16.699Z,8.05
2023-04-12T01:25:40.430Z,7.85
2023-04-12T01:30:45.433Z,7.59
2023-04-12T01:35:50.537Z,7.52
2023-04-12T01:40:54.890Z,7.58
2023-04-12T01:45:57.523Z,7.77
2023-04-12T01:51:10.912Z,7.98
2023-04-12T01:56:17.889Z,8.06
2023-04-12T02:01:22.694Z,8.11
2023-04-12T02:06:26.816Z,8.13
2023-04-12T02:11:30.242Z,8.19
2023-04-12T02:16:34.212Z,8.30
2023-04-12T02:21:42.797Z,8.40
2023-04-12T02:26:46.266Z,8.41
2023-04-12T02:31:48.829Z,8.43
2023-04-12T02:36:51.662Z,8.46
2023-04-12T02:41:54.221Z,8.51
2023-04-12T02:46:56.788Z,8.62
2023-04-12T02:51:59.335Z,8.72
2023-04-12T02:57:02.222Z,8.74
2023-04-12T03:02:05.090Z,8.78
2023-04-12T03:07:09.876Z,8.76
2023-04-12T03:12:12.548Z,8.76
2023-04-12T03:17:15.123Z,8.83
2023-04-12T03:22:17.876Z,8.90
2023-04-12T03:27:20.475Z,8.94
2023-04-12T03:32:24.658Z,9.00
2023-04-12T03:37:27.472Z,9.05
2023-04-12T03:42:33.478Z,9.17
2023-04-12T03:47:37.191Z,9.12
2023-04-12T03:52:40.099Z,9.07
2023-04-12T03:57:42.721Z,9.01
2023-04-12T04:02:47.431Z,9.00
2023-04-12T04:07:51.330Z,9.00
2023-04-12T04:12:54.874Z,9.01
2023-04-12T04:17:58.279Z,9.03
2023-04-12T04:23:01.061Z,8.98
2023-04-12T04:28:03.791Z,8.98
2023-04-12T04:33:07.194Z,9.04
2023-04-12T04:38:10.519Z,9.04
2023-04-12T04:43:13.995Z,9.01
2023-04-12T04:48:16.605Z,9.04
2023-04-12T04:53:22.492Z,9.06
2023-04-12T04:58:26.132Z,9.10
2023-04-12T05:03:30.806Z,9.08
2023-04-12T05:08:34.411Z,9.08
2023-04-12T05:13:37.028Z,9.12
2023-04-12T05:18:39.591Z,9.12
2023-04-12T05:23:46.175Z,9.07
2023-04-12T05:28:48.766Z,9.10
2023-04-12T05:33:51.565Z,9.24
2023-04-12T05:38:54.185Z,9.37
2023-04-12T05:43:56.727Z,9.42
2023-04-12T05:48:59.425Z,9.56
2023-04-12T05:54:06.226Z,9.67
2023-04-12T05:59:10.996Z,9.78
2023-04-12T06:04:15.213Z,10.08
2023-04-12T06:09:18.770Z,10.59
2023-04-12T06:14:21.479Z,10.89
2023-04-12T06:19:24.324Z,10.84
2023-04-12T06:24:27.016Z,10.75
2023-04-12T06:29:29.656Z,10.89
2023-04-12T06:34:34.434Z,11.16
2023-04-12T06:39:37.664Z,11.44
2023-04-12T06:44:40.562Z,11.78
2023-04-12T06:49:43.254Z,12.82
2023-04-12T06:54:46.385Z,14.55
2023-04-12T06:59:49.675Z,14.60
2023-04-12T07:04:54.407Z,14.18
2023-04-12T07:09:57.068Z,13.87
2023-04-12T07:14:59.800Z,13.81
2023-04-12T07:20:02.431Z,14.15
2023-04-12T07:25:09.961Z,14.07
2023-04-12T07:30:13.518Z,13.67
2023-04-12T07:35:16.432Z,13.47
2023-04-12T07:40:20.661Z,13.38
2023-04-12T07:45:23.205Z,13.22
2023-04-12T07:50:25.796Z,13.11
2023-04-12T07:55:28.504Z,13.15
2023-04-12T08:00:32.566Z,13.63
2023-04-12T08:05:35.665Z,14.32
2023-04-12T08:10:39.959Z,15.31
2023-04-12T08:15:43.916Z,16.13
2023-04-12T08:20:47.186Z,16.66
2023-04-12T08:25:49.915Z,17.10
2023-04-12T08:30:52.666Z,17.16
2023-04-12T08:35:55.816Z,17.02
2023-04-12T08:40:58.777Z,17.19
2023-04-12T08:46:02.035Z,17.75
2023-04-12T08:51:06.627Z,18.71
2023-04-12T08:56:14.459Z,19.40
2023-04-12T09:01:20.205Z,19.89
2023-04-12T09:06:22.819Z,20.11
2023-04-12T09:11:29.496Z,20.30
2023-04-12T09:16:42.743Z,20.46
2023-04-12T09:22:03.795Z,20.52
2023-04-12T09:27:09.149Z,20.69
2023-04-12T09:32:11.933Z,20.67
2023-04-12T09:37:17.889Z,20.63
2023-04-12T09:47:39.997Z,20.50
2023-04-12T09:52:43.618Z,20.29
2023-04-12T09:57:50.740Z,20.38
2023-04-12T10:02:56.456Z,20.64
2023-04-12T10:08:00.153Z,20.57
2023-04-12T10:13:03.495Z,20.66
2023-04-12T10:18:07.459Z,20.74
2023-04-12T10:23:10.902Z,20.61
2023-04-12T10:28:23.921Z,20.46
2023-04-12T10:33:31.030Z,20.42
2023-04-12T10:38:47.826Z,19.69
2023-04-12T10:43:52.154Z,19.01
2023-04-12T10:48:55.924Z,18.64
2023-04-12T10:54:08.373Z,18.44
2023-04-12T10:59:13.604Z,18.30
2023-04-12T11:04:21.364Z,17.98
2023-04-12T11:09:35.167Z,17.82
2023-04-12T11:14:52.296Z,17.79
2023-04-12T11:20:01.521Z,17.68
2023-04-12T11:25:05.471Z,17.62
2023-04-12T11:30:09.703Z,17.57
2023-04-12T11:35:24.354Z,17.62
2023-04-12T11:40:27.530Z,17.53
2023-04-12T11:45:32.341Z,17.50
2023-04-12T11:51:10.910Z,17.75
2023-04-12T11:56:14.892Z,17.83
2023-04-12T12:01:21.129Z,17.95
2023-04-12T12:06:24.682Z,18.00
2023-04-12T12:11:29.236Z,17.94
2023-04-12T12:16:32.332Z,18.10
2023-04-12T12:21:35.674Z,18.22
2023-04-12T12:26:39.058Z,18.36
2023-04-12T12:31:50.233Z,18.48
2023-04-12T12:36:56.958Z,18.55
2023-04-12T12:42:00.372Z,18.46
2023-04-12T12:47:13.466Z,18.46
2023-04-12T12:52:18.122Z,18.61
2023-04-12T12:57:21.072Z,18.71
2023-04-12T13:02:24.178Z,18.74
2023-04-12T13:07:27.245Z,18.53
2023-04-12T13:12:30.331Z,18.41
2023-04-12T13:17:33.331Z,18.31
2023-04-12T13:22:36.878Z,18.16
2023-04-12T13:27:39.882Z,17.95
2023-04-12T13:32:44.831Z,17.61
2023-04-12T13:37:47.734Z,17.26
2023-04-12T13:42:53.824Z,17.04
2023-04-12T13:47:56.746Z,16.86
2023-04-12T13:52:59.925Z,16.82
2023-04-12T13:58:03.059Z,16.64
2023-04-12T14:03:06.305Z,16.41
2023-04-12T14:08:09.308Z,16.31
2023-04-12T14:13:12.189Z,16.19
2023-04-12T14:18:15.775Z,16.18
2023-04-12T14:23:19.467Z,16.19
2023-04-12T14:28:24.310Z,16.21
2023-04-12T14:33:28.366Z,16.19
2023-04-12T14:38:31.659Z,16.00
2023-04-12T14:43:35.381Z,15.89
2023-04-12T14:48:38.255Z,15.89
2023-04-12T14:53:43.163Z,15.83
2023-04-12T14:58:47.168Z,15.81
2023-04-12T15:03:55.156Z,15.69
2023-04-12T15:08:59.959Z,15.59
2023-04-12T15:14:04.451Z,15.56
2023-04-12T15:19:15.515Z,15.50
2023-04-12T15:24:22.684Z,15.57
2023-04-12T15:29:28.545Z,15.78
2023-04-12T15:34:33.978Z,16.00
2023-04-12T15:39:37.488Z,16.04
2023-04-12T15:44:42.525Z,15.87
2023-04-12T15:49:45.660Z,15.68
2023-04-12T15:54:48.558Z,15.47
2023-04-12T15:59:52.900Z,15.19
2023-04-12T16:04:56.564Z,15.01
2023-04-12T16:09:59.624Z,14.79
2023-04-12T16:15:03.449Z,14.64
2023-04-12T16:20:10.157Z,14.57
2023-04-12T16:25:13.684Z,14.50
2023-04-12T16:30:18.916Z,14.38
2023-04-12T16:35:21.988Z,14.26
2023-04-12T16:40:25.981Z,14.05
2023-04-12T16:45:28.839Z,13.92
2023-04-12T16:50:32.128Z,13.84
2023-04-12T16:55:35.455Z,13.83
2023-04-12T17:00:39.186Z,13.80
2023-04-12T17:05:42.507Z,13.65
2023-04-12T17:10:45.840Z,13.48
2023-04-12T17:15:49.273Z,13.33
2023-04-12T17:20:52.731Z,13.13
2023-04-12T17:25:56.777Z,12.92
2023-04-12T17:30:59.774Z,12.68
2023-04-12T17:36:04.234Z,12.48
2023-04-12T17:41:09.451Z,12.31
2023-04-12T17:46:12.363Z,12.11
2023-04-12T17:51:16.581Z,11.97
2023-04-12T17:56:20.549Z,11.83
2023-04-12T18:01:23.914Z,11.67
2023-04-12T18:06:27.025Z,11.52
2023-04-12T18:11:30.401Z,11.41
2023-04-12T18:16:33.620Z,11.29
2023-04-12T18:21:36.852Z,11.17
2023-04-12T18:26:39.765Z,11.07
2023-04-12T18:31:42.718Z,10.98
2023-04-12T18:36:46.276Z,10.88
2023-04-12T18:41:49.909Z,10.78
2023-04-12T18:46:53.697Z,10.68
2023-04-12T18:51:58.947Z,10.60
2023-04-12T18:57:03.657Z,10.52
2023-04-12T19:02:07.830Z,10.42
2023-04-12T19:07:10.921Z,10.37
2023-04-12T19:12:14.366Z,10.32
2023-04-12T19:17:17.271Z,10.26
2023-04-12T19:22:20.378Z,10.16
2023-04-12T19:27:23.989Z,10.06
2023-04-12T19:32:28.547Z,9.99
2023-04-12T19:37:34.178Z,9.95
2023-04-12T19:42:37.237Z,9.85
2023-04-12T19:47:45.016Z,9.74
2023-04-12T19:52:48.840Z,9.61
2023-04-12T19:57:52.077Z,9.49
2023-04-12T20:02:55.305Z,9.50
2023-04-12T20:07:58.341Z,9.50
2023-04-12T20:13:01.128Z,9.41
2023-04-12T20:18:05.107Z,9.26
2023-04-12T20:23:07.796Z,9.18
2023-04-12T20:28:10.338Z,9.05
2023-04-12T20:33:13.359Z,8.88
2023-04-12T20:38:15.884Z,8.73
2023-04-12T20:43:18.475Z,8.58
2023-04-12T20:54:33.815Z,8.58
2023-04-12T20:59:36.590Z,8.49
2023-04-12T21:04:41.474Z,8.31
2023-04-12T21:09:44.236Z,8.16
2023-04-12T21:14:53.602Z,8.05
2023-04-12T21:19:57.366Z,7.98
2023-04-12T21:25:00.862Z,8.04
2023-04-12T21:30:04.010Z,8.01
2023-04-12T21:35:07.910Z,7.90
2023-04-12T21:40:12.293Z,7.88
2023-04-12T21:45:15.418Z,7.99
2023-04-12T21:50:18.051Z,8.11
2023-04-12T21:55:21.335Z,8.13
2023-04-12T22:00:27.236Z,8.02
2023-04-12T22:05:30.281Z,7.96
2023-04-12T22:10:34.950Z,7.90
2023-04-12T22:15:37.588Z,7.93
2023-04-12T22:20:41.334Z,8.02
2023-04-12T22:25:45.401Z,7.96
2023-04-12T22:30:48.666Z,7.74
2023-04-12T22:35:51.309Z,7.49
2023-04-12T22:41:01.952Z,7.34
2023-04-12T22:46:05.952Z,7.36
2023-04-12T22:51:09.890Z,7.34
2023-04-12T22:56:13.478Z,7.26
2023-04-12T23:01:16.179Z,7.14
2023-04-12T23:06:20.595Z,7.05
2023-04-12T23:11:23.348Z,6.95
2023-04-12T23:16:25.930Z,6.92
2023-04-12T23:21:30.305Z,6.96
2023-04-12T23:26:34.384Z,6.95
2023-04-12T23:31:37.133Z,6.90
2023-04-12T23:36:40.202Z,6.84
2023-04-12T23:41:42.782Z,6.78
2023-04-12T23:46:45.380Z,6.72
2023-04-12T23:51:48.019Z,6.66
2023-04-12T23:56:50.607Z,6.60
